createdAt,value
2023-02-16T00:00:19.536Z,100.00
2023-02-16T00:02:49.815Z,100.00
2023-02-16T00:05:25.719Z,100.00
2023-02-16T00:07:55.482Z,100.00
2023-02-16T00:10:25.462Z,100.00
2023-02-16T00:13:11.785Z,100.00
2023-02-16T00:15:40.923Z,100.00
2023-02-16T00:18:19.133Z,100.00
2023-02-16T00:20:48.239Z,100.00
2023-02-16T00:23:17.098Z,100.00
2023-02-16T00:25:45.626Z,100.00
2023-02-16T00:28:19.333Z,100.00
2023-02-16T00:30:48.013Z,100.00
2023-02-16T00:33:20.580Z,100.00
2023-02-16T00:35:49.146Z,100.00
2023-02-16T00:38:17.732Z,100.00
2023-02-16T00:40:46.383Z,100.00
2023-02-16T00:43:26.033Z,100.00
2023-02-16T00:45:55.310Z,100.00
2023-02-16T00:48:25.663Z,100.00
2023-02-16T00:50:55.396Z,100.00
2023-02-16T00:53:23.833Z,100.00
2023-02-16T00:55:52.514Z,100.00
2023-02-16T00:58:26.055Z,100.00
2023-02-16T01:00:57.798Z,100.00
2023-02-16T01:03:30.070Z,100.00
2023-02-16T01:06:12.670Z,100.00
2023-02-16T01:08:59.229Z,100.00
2023-02-16T01:11:28.581Z,100.00
2023-02-16T01:13:58.742Z,100.00
2023-02-16T01:16:36.175Z,100.00
2023-02-16T01:19:06.306Z,100.00
2023-02-16T01:21:34.768Z,100.00
2023-02-16T01:24:03.373Z,100.00
2023-02-16T01:26:33.924Z,100.00
2023-02-16T01:29:02.322Z,100.00
2023-02-16T01:31:30.916Z,100.00
2023-02-16T01:33:59.355Z,100.00
2023-02-16T01:36:34.699Z,100.00
2023-02-16T01:39:03.998Z,100.00
2023-02-16T01:42:05.477Z,100.00
2023-02-16T01:44:40.209Z,100.00
2023-02-16T01:47:28.002Z,100.00
2023-02-16T01:49:56.362Z,100.00
2023-02-16T01:52:35.001Z,100.00
2023-02-16T01:55:11.930Z,100.00
2023-02-16T01:57:46.686Z,100.00
2023-02-16T02:00:23.455Z,100.00
2023-02-16T02:03:16.406Z,100.00
2023-02-16T02:05:44.082Z,100.00
2023-02-16T02:08:23.417Z,100.00
2023-02-16T02:11:04.702Z,100.00
2023-02-16T02:13:43.145Z,100.00
2023-02-16T02:16:13.855Z,100.00
2023-02-16T02:18:44.909Z,100.00
2023-02-16T02:22:05.274Z,100.00
2023-02-16T02:25:25.341Z,100.00
2023-02-16T02:28:02.493Z,100.00
2023-02-16T02:30:44.442Z,100.00
2023-02-16T02:33:32.734Z,100.00
2023-02-16T02:36:19.966Z,100.00
2023-02-16T02:39:05.972Z,100.00
2023-02-16T02:42:01.058Z,100.00
2023-02-16T02:44:32.935Z,100.00
2023-02-16T02:47:01.446Z,100.00
2023-02-16T02:49:29.974Z,100.00
2023-02-16T02:51:59.250Z,100.00
2023-02-16T02:54:49.077Z,100.00
2023-02-16T02:57:39.007Z,100.00
2023-02-16T03:00:31.534Z,100.00
2023-02-16T03:03:04.160Z,100.00
2023-02-16T03:05:35.183Z,100.00
2023-02-16T03:08:14.148Z,100.00
2023-02-16T03:11:05.342Z,100.00
2023-02-16T03:13:40.030Z,100.00
2023-02-16T03:16:14.684Z,100.00
2023-02-16T03:19:02.265Z,100.00
2023-02-16T03:21:49.303Z,100.00
2023-02-16T03:24:44.956Z,100.00
2023-02-16T03:27:33.175Z,100.00
2023-02-16T03:30:04.805Z,100.00
2023-02-16T03:32:35.249Z,100.00
2023-02-16T03:35:03.701Z,100.00
2023-02-16T03:37:32.579Z,100.00
2023-02-16T03:40:19.147Z,100.00
2023-02-16T03:42:51.260Z,100.00
2023-02-16T03:45:20.762Z,100.00
2023-02-16T03:47:50.571Z,100.00
2023-02-16T03:50:19.102Z,100.00
2023-02-16T03:52:47.603Z,100.00
2023-02-16T03:55:16.274Z,100.00
2023-02-16T03:57:45.256Z,100.00
2023-02-16T04:00:14.909Z,100.00
2023-02-16T04:02:45.038Z,100.00
2023-02-16T04:05:14.835Z,100.00
2023-02-16T04:07:43.231Z,100.00
2023-02-16T04:10:11.930Z,100.00
2023-02-16T04:12:39.370Z,100.00
2023-02-16T04:15:10.979Z,100.00
2023-02-16T04:17:39.439Z,100.00
2023-02-16T04:20:11.156Z,100.00
2023-02-16T04:22:40.934Z,100.00
2023-02-16T04:25:09.974Z,100.00
2023-02-16T04:27:39.836Z,100.00
2023-02-16T04:30:14.379Z,100.00
2023-02-16T04:32:42.822Z,100.00
2023-02-16T04:35:12.147Z,100.00
2023-02-16T04:37:42.058Z,100.00
2023-02-16T04:40:13.781Z,100.00
2023-02-16T04:42:42.376Z,100.00
2023-02-16T04:45:11.826Z,100.00
2023-02-16T04:47:40.293Z,100.00
2023-02-16T04:50:10.952Z,100.00
2023-02-16T04:52:41.568Z,100.00
2023-02-16T04:55:12.514Z,100.00
2023-02-16T04:57:41.488Z,100.00
2023-02-16T05:00:12.811Z,100.00
2023-02-16T05:02:41.296Z,100.00
2023-02-16T05:05:10.475Z,100.00
2023-02-16T05:07:38.888Z,100.00
2023-02-16T05:10:10.036Z,100.00
2023-02-16T05:12:56.048Z,100.00
2023-02-16T05:15:24.415Z,100.00
2023-02-16T05:17:52.982Z,100.00
2023-02-16T05:20:41.541Z,100.00
2023-02-16T05:23:10.015Z,100.00
2023-02-16T05:25:39.808Z,100.00
2023-02-16T05:28:08.462Z,100.00
2023-02-16T05:30:37.025Z,100.00
2023-02-16T05:33:05.665Z,100.00
2023-02-16T05:35:35.584Z,100.00
2023-02-16T05:38:04.014Z,100.00
2023-02-16T05:40:32.434Z,100.00
2023-02-16T05:43:02.235Z,100.00
2023-02-16T05:45:30.678Z,100.00
2023-02-16T05:47:59.051Z,100.00
2023-02-16T05:50:27.660Z,100.00
2023-02-16T05:53:00.781Z,100.00
2023-02-16T05:55:29.476Z,100.00
2023-02-16T05:57:57.905Z,100.00
2023-02-16T06:00:28.214Z,100.00
2023-02-16T06:02:56.833Z,100.00
2023-02-16T06:05:25.331Z,100.00
2023-02-16T06:07:53.970Z,100.00
2023-02-16T06:10:22.541Z,100.00
2023-02-16T06:12:51.082Z,100.00
2023-02-16T06:15:19.686Z,100.00
2023-02-16T06:17:49.543Z,100.00
2023-02-16T06:20:18.198Z,100.00
2023-02-16T06:22:46.686Z,100.00
2023-02-16T06:25:15.352Z,100.00
2023-02-16T06:27:43.972Z,100.00
2023-02-16T06:30:13.517Z,100.00
2023-02-16T06:32:42.045Z,100.00
2023-02-16T06:35:12.204Z,100.00
2023-02-16T06:37:40.936Z,100.00
2023-02-16T06:40:11.659Z,100.00
2023-02-16T06:42:40.176Z,100.00
2023-02-16T06:45:10.106Z,100.00
2023-02-16T06:47:39.560Z,100.00
2023-02-16T06:50:13.718Z,100.00
2023-02-16T06:52:42.269Z,100.00
2023-02-16T06:55:11.085Z,100.00
2023-02-16T06:57:39.498Z,100.00
2023-02-16T07:00:09.693Z,100.00
2023-02-16T07:02:38.151Z,100.00
2023-02-16T07:05:07.012Z,100.00
2023-02-16T07:07:36.830Z,100.00
2023-02-16T07:10:05.878Z,100.00
2023-02-16T07:12:34.290Z,100.00
2023-02-16T07:15:02.996Z,100.00
2023-02-16T07:17:31.406Z,100.00
2023-02-16T07:20:00.147Z,100.00
2023-02-16T07:22:29.777Z,100.00
2023-02-16T07:25:00.747Z,100.00
2023-02-16T07:27:29.496Z,100.00
2023-02-16T07:29:57.888Z,100.00
2023-02-16T07:32:27.203Z,100.00
2023-02-16T07:34:56.376Z,100.00
2023-02-16T07:37:24.986Z,100.00
2023-02-16T07:39:54.196Z,100.00
2023-02-16T07:42:24.054Z,100.00
2023-02-16T07:44:53.746Z,100.00
2023-02-16T07:47:23.377Z,100.00
2023-02-16T07:49:51.832Z,100.00
2023-02-16T07:52:20.338Z,100.00
2023-02-16T07:54:48.824Z,100.00
2023-02-16T07:57:17.273Z,100.00
2023-02-16T07:59:47.057Z,100.00
2023-02-16T08:02:17.898Z,100.00
2023-02-16T08:04:46.710Z,100.00
2023-02-16T08:07:15.672Z,100.00
2023-02-16T08:09:44.318Z,100.00
2023-02-16T08:12:14.706Z,100.00
2023-02-16T08:14:43.360Z,100.00
2023-02-16T08:17:14.109Z,100.00
2023-02-16T08:19:42.835Z,100.00
2023-02-16T08:22:12.236Z,100.00
2023-02-16T08:24:40.815Z,100.00
2023-02-16T08:27:09.405Z,100.00
2023-02-16T08:29:38.483Z,100.00
2023-02-16T08:32:08.116Z,100.00
2023-02-16T08:34:38.841Z,100.00
2023-02-16T08:37:08.141Z,100.00
2023-02-16T08:39:37.163Z,100.00
2023-02-16T08:42:06.577Z,100.00
2023-02-16T08:44:35.536Z,100.00
2023-02-16T08:47:04.335Z,100.00
2023-02-16T08:49:33.142Z,100.00
2023-02-16T08:52:04.264Z,100.00
2023-02-16T08:54:33.521Z,100.00
2023-02-16T08:57:03.252Z,100.00
2023-02-16T08:59:32.867Z,100.00
2023-02-16T09:02:02.505Z,100.00
2023-02-16T09:04:31.801Z,100.00
2023-02-16T09:07:10.853Z,100.00
2023-02-16T09:09:41.082Z,100.00
2023-02-16T09:12:10.337Z,100.00
2023-02-16T09:14:39.100Z,100.00
2023-02-16T09:17:07.567Z,100.00
2023-02-16T09:19:36.122Z,100.00
2023-02-16T09:22:06.061Z,100.00
2023-02-16T09:24:34.445Z,100.00
2023-02-16T09:27:04.217Z,100.00
2023-02-16T09:29:32.816Z,100.00
2023-02-16T09:32:01.270Z,100.00
2023-02-16T09:34:29.896Z,100.00
2023-02-16T09:36:58.860Z,100.00
2023-02-16T09:39:28.828Z,100.00
2023-02-16T09:42:10.991Z,100.00
2023-02-16T09:44:55.878Z,100.00
2023-02-16T09:47:31.023Z,100.00
2023-02-16T09:50:03.900Z,100.00
2023-02-16T09:52:40.406Z,100.00
2023-02-16T09:55:16.205Z,100.00
2023-02-16T09:57:58.198Z,100.00
2023-02-16T10:00:44.371Z,100.00
2023-02-16T10:03:30.222Z,100.00
2023-02-16T10:06:12.524Z,100.00
2023-02-16T10:08:46.387Z,100.00
2023-02-16T10:11:41.087Z,99.80
2023-02-16T10:14:30.843Z,99.31
2023-02-16T10:17:13.407Z,99.40
2023-02-16T10:19:49.477Z,99.41
2023-02-16T10:22:28.391Z,99.35
2023-02-16T10:25:03.684Z,99.15
2023-02-16T10:27:40.477Z,99.37
2023-02-16T10:30:18.249Z,99.61
2023-02-16T10:32:58.386Z,99.44
2023-02-16T10:35:33.854Z,98.69
2023-02-16T10:38:12.319Z,98.97
2023-02-16T10:40:53.683Z,99.60
2023-02-16T10:43:40.851Z,99.11
2023-02-16T10:46:13.201Z,98.84
2023-02-16T10:48:41.989Z,98.47
2023-02-16T10:51:13.926Z,98.00
2023-02-16T10:53:48.221Z,98.77
2023-02-16T10:56:47.600Z,97.47
2023-02-16T10:59:20.726Z,96.86
2023-02-16T11:01:53.944Z,97.03
2023-02-16T11:04:35.798Z,96.25
2023-02-16T11:07:08.672Z,96.20
2023-02-16T11:09:38.388Z,96.05
2023-02-16T11:12:25.733Z,95.28
2023-02-16T11:15:00.083Z,95.15
2023-02-16T11:17:29.599Z,95.15
2023-02-16T11:20:05.621Z,95.72
2023-02-16T11:22:38.115Z,94.35
2023-02-16T11:25:27.189Z,94.30
2023-02-16T11:27:58.469Z,93.96
2023-02-16T11:30:36.476Z,94.62
2023-02-16T11:33:20.188Z,94.28
2023-02-16T11:35:49.289Z,94.99
2023-02-16T11:38:31.608Z,95.30
2023-02-16T11:41:02.986Z,96.26
2023-02-16T11:43:36.461Z,95.82
2023-02-16T11:46:16.638Z,95.22
2023-02-16T11:48:46.259Z,94.31
2023-02-16T11:51:19.279Z,92.92
2023-02-16T11:54:01.467Z,92.07
2023-02-16T11:56:32.274Z,92.54
2023-02-16T11:59:19.266Z,91.43
2023-02-16T12:02:31.259Z,92.71
2023-02-16T12:05:27.173Z,92.99
2023-02-16T12:08:19.024Z,92.45
2023-02-16T12:11:11.064Z,90.87
2023-02-16T12:13:49.866Z,89.55
2023-02-16T12:16:29.060Z,87.27
2023-02-16T12:19:19.663Z,85.38
2023-02-16T12:21:51.134Z,85.33
2023-02-16T12:24:37.519Z,85.83
2023-02-16T12:27:13.502Z,87.50
2023-02-16T12:29:54.964Z,87.07
2023-02-16T12:32:50.668Z,87.48
2023-02-16T12:35:50.366Z,86.96
2023-02-16T12:38:34.729Z,87.30
2023-02-16T12:41:21.234Z,87.72
2023-02-16T12:43:54.250Z,86.51
2023-02-16T12:46:29.777Z,85.71
2023-02-16T12:49:03.651Z,84.70
2023-02-16T12:51:38.963Z,84.89
2023-02-16T12:54:17.684Z,84.26
2023-02-16T12:56:54.028Z,84.76
2023-02-16T12:59:31.040Z,86.21
2023-02-16T13:02:02.382Z,84.69
2023-02-16T13:04:40.882Z,85.21
2023-02-16T13:07:19.112Z,86.07
2023-02-16T13:09:59.270Z,85.73
2023-02-16T13:12:33.689Z,85.94
2023-02-16T13:15:14.365Z,86.69
2023-02-16T13:17:49.365Z,88.10
2023-02-16T13:20:21.214Z,86.21
2023-02-16T13:23:39.401Z,87.02
2023-02-16T13:26:57.281Z,86.31
2023-02-16T13:29:56.205Z,87.10
2023-02-16T13:33:04.182Z,86.52
2023-02-16T13:36:11.150Z,86.20
2023-02-16T13:39:23.425Z,86.73
2023-02-16T13:42:29.528Z,86.96
2023-02-16T13:45:01.608Z,87.63
2023-02-16T13:47:33.361Z,86.97
2023-02-16T13:50:05.014Z,87.60
2023-02-16T13:52:37.429Z,88.43
2023-02-16T13:55:23.237Z,88.28
2023-02-16T13:58:08.206Z,88.35
2023-02-16T14:00:40.079Z,88.33
2023-02-16T14:03:15.440Z,88.45
2023-02-16T14:05:46.605Z,88.39
2023-02-16T14:08:25.566Z,88.62
2023-02-16T14:11:10.778Z,88.68
2023-02-16T14:13:51.488Z,88.07
2023-02-16T14:16:34.749Z,88.46
2023-02-16T14:19:07.572Z,88.37
2023-02-16T14:21:42.912Z,88.61
2023-02-16T14:24:30.009Z,88.75
2023-02-16T14:27:02.848Z,88.52
2023-02-16T14:29:36.292Z,88.43
2023-02-16T14:32:23.407Z,88.69
2023-02-16T14:34:57.245Z,89.66
2023-02-16T14:37:37.487Z,89.94
2023-02-16T14:40:22.908Z,90.59
2023-02-16T14:42:57.870Z,90.75
2023-02-16T14:46:26.092Z,90.85
2023-02-16T14:49:30.608Z,91.12
2023-02-16T14:52:46.692Z,90.56
2023-02-16T14:55:33.605Z,90.17
2023-02-16T14:58:17.257Z,90.02
2023-02-16T15:00:51.771Z,90.34
2023-02-16T15:03:23.635Z,90.35
2023-02-16T15:05:58.320Z,91.15
2023-02-16T15:08:35.136Z,91.58
2023-02-16T15:11:15.237Z,90.71
2023-02-16T15:13:45.692Z,90.53
2023-02-16T15:16:15.294Z,91.54
2023-02-16T15:18:47.776Z,92.23
2023-02-16T15:21:22.525Z,90.85
2023-02-16T15:23:54.994Z,92.01
2023-02-16T15:26:26.110Z,91.19
2023-02-16T15:28:59.617Z,91.99
2023-02-16T15:31:35.018Z,92.59
2023-02-16T15:34:05.793Z,92.08
2023-02-16T15:36:36.841Z,91.93
2023-02-16T15:39:08.303Z,92.65
2023-02-16T15:41:40.232Z,92.89
2023-02-16T15:44:31.365Z,93.64
2023-02-16T15:47:09.125Z,94.19
2023-02-16T15:49:39.481Z,94.90
2023-02-16T15:52:13.964Z,95.33
2023-02-16T15:54:43.215Z,96.43
2023-02-16T15:57:21.271Z,96.53
2023-02-16T15:59:53.016Z,96.52
2023-02-16T16:02:26.100Z,96.75
2023-02-16T16:04:58.402Z,96.54
2023-02-16T16:07:30.678Z,96.73
2023-02-16T16:09:59.958Z,96.58
2023-02-16T16:12:29.250Z,96.14
2023-02-16T16:15:01.219Z,96.50
2023-02-16T16:17:33.249Z,95.71
2023-02-16T16:20:27.362Z,96.46
2023-02-16T16:23:01.817Z,96.99
2023-02-16T16:25:39.320Z,97.35
2023-02-16T16:28:14.508Z,97.21
2023-02-16T16:30:45.401Z,97.27
2023-02-16T16:33:16.268Z,96.92
2023-02-16T16:35:47.685Z,96.89
2023-02-16T16:38:26.322Z,97.49
2023-02-16T16:40:57.151Z,98.01
2023-02-16T16:43:30.024Z,98.22
2023-02-16T16:46:19.846Z,98.44
2023-02-16T16:48:51.502Z,98.59
2023-02-16T16:51:35.300Z,98.44
2023-02-16T16:54:05.656Z,99.95
2023-02-16T16:56:39.195Z,99.15
2023-02-16T16:59:07.929Z,98.50
2023-02-16T17:01:37.897Z,98.24
2023-02-16T17:04:06.399Z,98.92
2023-02-16T17:06:35.087Z,98.84
2023-02-16T17:09:04.512Z,99.36
2023-02-16T17:11:37.064Z,99.88
2023-02-16T17:14:11.799Z,99.53
2023-02-16T17:16:44.910Z,99.92
2023-02-16T17:19:14.683Z,100.00
2023-02-16T17:21:43.653Z,100.00
2023-02-16T17:24:12.608Z,100.00
2023-02-16T17:26:41.523Z,100.00
2023-02-16T17:29:10.202Z,100.00
2023-02-16T17:31:38.751Z,100.00
2023-02-16T17:34:08.854Z,100.00
2023-02-16T17:36:39.387Z,100.00
2023-02-16T17:39:08.492Z,100.00
2023-02-16T17:41:36.975Z,100.00
2023-02-16T17:44:05.828Z,100.00
2023-02-16T17:46:34.349Z,100.00
2023-02-16T17:49:03.012Z,100.00
2023-02-16T17:51:36.303Z,100.00
2023-02-16T17:54:06.585Z,100.00
2023-02-16T17:56:35.439Z,100.00
2023-02-16T17:59:04.414Z,100.00
2023-02-16T18:01:34.948Z,100.00
2023-02-16T18:04:04.241Z,100.00
2023-02-16T18:06:33.996Z,100.00
2023-02-16T18:09:02.661Z,100.00
2023-02-16T18:11:31.224Z,100.00
2023-02-16T18:13:59.729Z,100.00
2023-02-16T18:16:29.180Z,100.00
2023-02-16T18:18:58.385Z,100.00
2023-02-16T18:21:26.967Z,100.00
2023-02-16T18:23:56.832Z,100.00
2023-02-16T18:26:25.328Z,100.00
2023-02-16T18:28:53.712Z,100.00
2023-02-16T18:31:22.175Z,100.00
2023-02-16T18:33:51.130Z,100.00
2023-02-16T18:36:19.792Z,100.00
2023-02-16T18:38:48.334Z,100.00
2023-02-16T18:41:18.202Z,100.00
2023-02-16T18:43:46.662Z,100.00
2023-02-16T18:46:15.099Z,100.00
2023-02-16T18:48:43.513Z,100.00
2023-02-16T18:51:13.508Z,100.00
2023-02-16T18:53:42.029Z,100.00
2023-02-16T18:56:12.780Z,100.00
2023-02-16T18:58:43.504Z,100.00
2023-02-16T19:01:16.214Z,100.00
2023-02-16T19:03:44.728Z,100.00
2023-02-16T19:06:13.200Z,100.00
2023-02-16T19:08:41.665Z,100.00
2023-02-16T19:11:10.241Z,100.00
2023-02-16T19:13:38.843Z,100.00
2023-02-16T19:16:09.035Z,100.00
2023-02-16T19:18:37.616Z,100.00
2023-02-16T19:21:08.055Z,100.00
2023-02-16T19:23:36.789Z,100.00
2023-02-16T19:26:11.035Z,100.00
2023-02-16T19:28:40.171Z,100.00
2023-02-16T19:31:17.743Z,100.00
2023-02-16T19:33:46.516Z,100.00
2023-02-16T19:36:16.617Z,100.00
2023-02-16T19:38:45.602Z,100.00
2023-02-16T19:41:17.726Z,100.00
2023-02-16T19:43:46.396Z,100.00
2023-02-16T19:46:17.110Z,100.00
2023-02-16T19:48:46.305Z,100.00
2023-02-16T19:51:15.489Z,100.00
2023-02-16T19:53:45.402Z,100.00
2023-02-16T19:56:17.312Z,100.00
2023-02-16T19:58:46.170Z,100.00
2023-02-16T20:01:22.233Z,100.00
2023-02-16T20:03:52.936Z,100.00
2023-02-16T20:06:23.981Z,100.00
2023-02-16T20:08:54.076Z,100.00
2023-02-16T20:11:25.637Z,100.00
2023-02-16T20:13:54.713Z,100.00
2023-02-16T20:16:26.394Z,100.00
2023-02-16T20:18:56.027Z,100.00
2023-02-16T20:21:28.166Z,100.00
2023-02-16T20:24:00.012Z,100.00
2023-02-16T20:26:34.030Z,100.00
2023-02-16T20:29:03.825Z,100.00
2023-02-16T20:31:39.151Z,100.00
2023-02-16T20:34:08.326Z,100.00
2023-02-16T20:36:37.284Z,100.00
2023-02-16T20:39:08.612Z,100.00
2023-02-16T20:41:37.549Z,100.00
2023-02-16T20:44:06.794Z,100.00
2023-02-16T20:46:37.612Z,100.00
2023-02-16T20:49:07.011Z,100.00
2023-02-16T20:51:36.463Z,100.00
2023-02-16T20:54:05.737Z,100.00
2023-02-16T20:56:34.208Z,100.00
2023-02-16T20:59:02.718Z,100.00
2023-02-16T21:01:37.201Z,100.00
2023-02-16T21:04:09.335Z,100.00
2023-02-16T21:06:38.794Z,100.00
2023-02-16T21:09:08.625Z,100.00
2023-02-16T21:11:38.311Z,100.00
2023-02-16T21:14:06.897Z,100.00
2023-02-16T21:16:36.233Z,100.00
2023-02-16T21:19:17.326Z,100.00
2023-02-16T21:21:51.008Z,100.00
2023-02-16T21:24:19.500Z,100.00
2023-02-16T21:26:48.092Z,100.00
2023-02-16T21:29:16.754Z,100.00
2023-02-16T21:31:45.357Z,100.00
2023-02-16T21:34:15.348Z,100.00
2023-02-16T21:36:44.346Z,100.00
2023-02-16T21:39:13.216Z,100.00
2023-02-16T21:41:40.588Z,100.00
2023-02-16T21:44:12.159Z,100.00
2023-02-16T21:46:42.685Z,100.00
2023-02-16T21:49:15.723Z,100.00
2023-02-16T21:51:46.363Z,100.00
2023-02-16T21:54:16.629Z,100.00
2023-02-16T21:56:50.207Z,100.00
2023-02-16T21:59:22.739Z,100.00
2023-02-16T22:01:52.689Z,100.00
2023-02-16T22:04:24.354Z,100.00
2023-02-16T22:06:54.786Z,100.00
2023-02-16T22:09:24.640Z,100.00
2023-02-16T22:11:53.551Z,100.00
2023-02-16T22:14:22.228Z,100.00
2023-02-16T22:16:51.140Z,100.00
2023-02-16T22:19:21.342Z,100.00
2023-02-16T22:21:51.387Z,100.00
2023-02-16T22:24:21.019Z,100.00
2023-02-16T22:26:51.065Z,100.00
2023-02-16T22:29:19.907Z,100.00
2023-02-16T22:31:50.502Z,100.00
2023-02-16T22:34:22.606Z,100.00
2023-02-16T22:36:51.386Z,100.00
2023-02-16T22:39:20.747Z,100.00
2023-02-16T22:41:51.184Z,100.00
2023-02-16T22:44:19.749Z,100.00
2023-02-16T22:46:48.504Z,100.00
2023-02-16T22:49:17.034Z,100.00
2023-02-16T22:51:46.893Z,100.00
2023-02-16T22:54:16.305Z,100.00
2023-02-16T22:56:45.753Z,100.00
2023-02-16T22:59:14.583Z,100.00
2023-02-16T23:01:43.221Z,100.00
2023-02-16T23:04:15.985Z,100.00
2023-02-16T23:06:46.635Z,100.00
2023-02-16T23:09:17.802Z,100.00
2023-02-16T23:11:46.779Z,100.00
2023-02-16T23:14:17.460Z,100.00
2023-02-16T23:16:47.761Z,100.00
2023-02-16T23:19:20.914Z,100.00
2023-02-16T23:21:51.192Z,100.00
2023-02-16T23:24:23.447Z,100.00
2023-02-16T23:26:52.390Z,100.00
2023-02-16T23:29:20.899Z,100.00
2023-02-16T23:31:49.570Z,100.00
2023-02-16T23:34:19.184Z,100.00
2023-02-16T23:36:48.067Z,100.00
2023-02-16T23:39:19.726Z,100.00
2023-02-16T23:41:48.738Z,100.00
2023-02-16T23:44:17.371Z,100.00
2023-02-16T23:46:45.849Z,100.00
2023-02-16T23:49:14.559Z,100.00
2023-02-16T23:51:42.994Z,100.00
2023-02-16T23:54:11.650Z,100.00
2023-02-16T23:56:42.286Z,100.00
2023-02-16T23:59:10.881Z,100.00
